createdAt,value
2017-08-30T00:02:18.108Z,96323.80
2017-08-30T00:04:43.896Z,96323.38
2017-08-30T00:07:09.650Z,96321.20
2017-08-30T00:09:35.497Z,96321.45
2017-08-30T00:12:01.284Z,96327.80
2017-08-30T00:14:27.040Z,96321.27
2017-08-30T00:16:52.811Z,96332.92
2017-08-30T00:19:18.591Z,96331.73
2017-08-30T00:21:44.407Z,96324.17
2017-08-30T00:24:10.168Z,96325.78
2017-08-30T00:26:35.955Z,96329.23
2017-08-30T00:29:01.811Z,96317.92
2017-08-30T00:31:27.590Z,96316.67
2017-08-30T00:33:53.451Z,96311.87
2017-08-30T00:36:19.243Z,96317.84
2017-08-30T00:38:45.023Z,96315.41
2017-08-30T00:41:10.800Z,96316.19
2017-08-30T00:43:36.604Z,96315.75
2017-08-30T00:46:02.363Z,96311.53
2017-08-30T00:48:28.216Z,96305.05
2017-08-30T00:50:54.027Z,96303.16
2017-08-30T00:53:19.788Z,96298.74
2017-08-30T00:55:45.575Z,96300.56
2017-08-30T00:58:11.372Z,96302.70
2017-08-30T01:00:37.151Z,96301.22
2017-08-30T01:03:02.969Z,96295.77
2017-08-30T01:05:28.746Z,96296.67
2017-08-30T01:07:54.547Z,96294.13
2017-08-30T01:10:20.456Z,96297.75
2017-08-30T01:12:46.208Z,96294.98
2017-08-30T01:15:11.952Z,96296.69
2017-08-30T01:17:37.741Z,96293.08
2017-08-30T01:20:03.493Z,96286.31
2017-08-30T01:22:29.293Z,96284.95
2017-08-30T01:24:55.039Z,96280.22
2017-08-30T01:27:20.850Z,96279.75
2017-08-30T01:29:46.762Z,96278.59
2017-08-30T01:32:12.580Z,96281.98
2017-08-30T01:34:38.349Z,96284.45
2017-08-30T01:37:04.111Z,96284.36
2017-08-30T01:39:29.912Z,96277.45
2017-08-30T01:41:55.735Z,96273.23
2017-08-30T01:44:21.484Z,96268.38
2017-08-30T01:46:47.263Z,96264.39
2017-08-30T01:49:13.035Z,96262.81
2017-08-30T01:51:38.798Z,96265.03
2017-08-30T01:54:04.575Z,96261.50
2017-08-30T01:56:30.380Z,96260.58
2017-08-30T01:58:56.174Z,96256.09
2017-08-30T02:01:21.931Z,96259.52
2017-08-30T02:03:47.671Z,96250.18
2017-08-30T02:06:13.519Z,96250.52
2017-08-30T02:08:39.277Z,96249.53
2017-08-30T02:11:05.050Z,96247.97
2017-08-30T02:13:30.876Z,96244.47
2017-08-30T02:15:56.644Z,96239.61
2017-08-30T02:18:22.414Z,96240.02
2017-08-30T02:20:48.191Z,96241.61
2017-08-30T02:23:13.974Z,96240.77
2017-08-30T02:25:39.755Z,96238.03
2017-08-30T02:28:05.587Z,96240.19
2017-08-30T02:30:31.353Z,96244.48
2017-08-30T02:32:57.140Z,96238.95
2017-08-30T02:35:22.932Z,96240.23
2017-08-30T02:37:48.722Z,96235.92
2017-08-30T02:40:14.486Z,96228.50
2017-08-30T02:42:40.288Z,96229.73
2017-08-30T02:45:06.058Z,96223.72
2017-08-30T02:47:31.833Z,96217.44
2017-08-30T02:49:57.615Z,96216.95
2017-08-30T02:52:23.393Z,96212.90
2017-08-30T02:54:50.119Z,96212.24
2017-08-30T02:57:15.952Z,96213.66
2017-08-30T02:59:41.724Z,96216.29
2017-08-30T03:02:07.475Z,96221.50
2017-08-30T03:04:33.269Z,96216.78
2017-08-30T03:06:59.036Z,96220.59
2017-08-30T03:09:24.798Z,96218.81
2017-08-30T03:11:50.609Z,96218.88
2017-08-30T03:14:16.365Z,96217.36
2017-08-30T03:16:42.196Z,96216.66
2017-08-30T03:19:07.971Z,96212.33
2017-08-30T03:21:33.725Z,96212.56
2017-08-30T03:23:59.503Z,96206.36
2017-08-30T03:26:25.291Z,96218.92
2017-08-30T03:28:51.065Z,96217.45
2017-08-30T03:31:16.832Z,96219.81
2017-08-30T03:33:42.629Z,96215.80
2017-08-30T03:36:08.495Z,96214.01
2017-08-30T03:38:34.246Z,96204.28
2017-08-30T03:41:00.906Z,96210.25
2017-08-30T03:43:26.734Z,96198.19
2017-08-30T03:45:52.491Z,96201.42
2017-08-30T03:48:18.291Z,96197.80
2017-08-30T03:50:44.068Z,96195.25
2017-08-30T03:53:09.844Z,96201.91
2017-08-30T03:55:35.735Z,96203.80
2017-08-30T03:58:01.519Z,96201.57
2017-08-30T04:00:27.284Z,96194.95
2017-08-30T04:02:53.043Z,96200.17
2017-08-30T04:05:18.831Z,96198.16
2017-08-30T04:07:44.611Z,96197.95
2017-08-30T04:10:10.379Z,96187.78
2017-08-30T04:12:36.151Z,96200.04
2017-08-30T04:15:02.084Z,96197.06
2017-08-30T04:17:27.856Z,96203.03
2017-08-30T04:19:53.665Z,96205.05
2017-08-30T04:22:19.507Z,96209.20
2017-08-30T04:24:45.312Z,96210.03
2017-08-30T04:27:11.119Z,96208.80
2017-08-30T04:29:36.919Z,96203.38
2017-08-30T04:32:02.695Z,96213.71
2017-08-30T04:34:28.467Z,96212.72
2017-08-30T04:36:54.256Z,96212.25
2017-08-30T04:39:20.015Z,96210.25
2017-08-30T04:41:45.878Z,96208.48
2017-08-30T04:44:11.677Z,96207.50
2017-08-30T04:46:38.570Z,96210.78
2017-08-30T04:49:04.333Z,96213.63
2017-08-30T04:51:30.127Z,96205.70
2017-08-30T04:53:55.932Z,96211.92
2017-08-30T04:56:21.772Z,96222.16
2017-08-30T04:58:47.563Z,96217.86
2017-08-30T05:01:13.358Z,96223.25
2017-08-30T05:03:39.146Z,96219.69
2017-08-30T05:06:04.955Z,96214.02
2017-08-30T05:08:30.699Z,96215.72
2017-08-30T05:10:56.453Z,96219.27
2017-08-30T05:13:22.223Z,96221.08
2017-08-30T05:15:47.983Z,96224.80
2017-08-30T05:18:13.775Z,96228.72
2017-08-30T05:20:39.544Z,96224.47
2017-08-30T05:23:05.311Z,96229.12
2017-08-30T05:25:31.113Z,96227.36
2017-08-30T05:27:56.864Z,96223.29
2017-08-30T05:30:23.468Z,96219.59
2017-08-30T05:32:49.264Z,96219.76
2017-08-30T05:35:15.041Z,96211.61
2017-08-30T05:37:40.811Z,96207.19
2017-08-30T05:40:06.653Z,96214.39
2017-08-30T05:42:32.411Z,96215.59
2017-08-30T05:44:58.192Z,96212.27
2017-08-30T05:47:23.959Z,96208.61
2017-08-30T05:49:49.815Z,96210.55
2017-08-30T05:52:15.563Z,96206.44
2017-08-30T05:54:41.339Z,96207.34
2017-08-30T05:57:07.134Z,96198.59
2017-08-30T05:59:32.882Z,96196.49
2017-08-30T06:01:58.672Z,96187.70
2017-08-30T06:04:24.445Z,96197.93
2017-08-30T06:06:50.196Z,96191.04
2017-08-30T06:09:16.000Z,96190.48
2017-08-30T06:11:41.755Z,96189.80
2017-08-30T06:14:07.495Z,96184.16
2017-08-30T06:16:33.294Z,96185.02
2017-08-30T06:18:59.034Z,96190.86
2017-08-30T06:21:24.788Z,96181.95
2017-08-30T06:23:50.563Z,96178.96
2017-08-30T06:26:16.323Z,96179.38
2017-08-30T06:28:42.095Z,96179.52
2017-08-30T06:31:07.864Z,96181.66
2017-08-30T06:33:33.648Z,96179.39
2017-08-30T06:35:59.421Z,96179.04
2017-08-30T06:38:25.479Z,96184.52
2017-08-30T06:40:51.241Z,96182.89
2017-08-30T06:43:17.010Z,96179.16
2017-08-30T06:45:42.796Z,96176.52
2017-08-30T06:48:08.567Z,96176.21
2017-08-30T06:50:34.384Z,96174.52
2017-08-30T06:53:00.135Z,96176.44
2017-08-30T06:55:25.882Z,96168.52
2017-08-30T06:57:51.684Z,96178.05
2017-08-30T07:00:17.454Z,96172.36
2017-08-30T07:02:43.242Z,96174.75
2017-08-30T07:05:09.003Z,96169.20
2017-08-30T07:07:34.777Z,96177.56
2017-08-30T07:10:00.551Z,96176.50
2017-08-30T07:12:26.331Z,96177.00
2017-08-30T07:14:52.175Z,96183.52
2017-08-30T07:17:17.926Z,96180.94
2017-08-30T07:19:43.691Z,96176.33
2017-08-30T07:22:09.443Z,96175.59
2017-08-30T07:24:35.271Z,96181.75
2017-08-30T07:27:01.040Z,96174.14
2017-08-30T07:29:26.788Z,96179.20
2017-08-30T07:31:52.564Z,96177.92
2017-08-30T07:34:18.319Z,96176.38
2017-08-30T07:36:44.091Z,96177.77
2017-08-30T07:39:09.915Z,96183.61
2017-08-30T07:41:35.665Z,96189.53
2017-08-30T07:44:01.448Z,96190.91
2017-08-30T07:46:27.212Z,96190.16
2017-08-30T07:48:52.966Z,96189.42
2017-08-30T07:51:18.779Z,96192.06
2017-08-30T07:53:44.535Z,96190.33
2017-08-30T07:56:10.288Z,96193.73
2017-08-30T07:58:36.139Z,96196.73
2017-08-30T08:01:01.973Z,96189.34
2017-08-30T08:03:27.715Z,96189.13
2017-08-30T08:05:53.465Z,96185.23
2017-08-30T08:08:19.244Z,96187.22
2017-08-30T08:10:45.004Z,96189.05
2017-08-30T08:13:10.793Z,96191.22
2017-08-30T08:15:36.567Z,96189.04
2017-08-30T08:18:02.352Z,96185.17
2017-08-30T08:20:28.140Z,96189.87
2017-08-30T08:22:53.931Z,96190.31
2017-08-30T08:25:19.702Z,96185.67
2017-08-30T08:27:45.523Z,96182.39
2017-08-30T08:30:11.276Z,96185.52
2017-08-30T08:32:37.035Z,96186.68
2017-08-30T08:35:02.811Z,96181.07
2017-08-30T08:37:28.583Z,96181.56
2017-08-30T08:39:54.367Z,96177.28
2017-08-30T08:42:20.155Z,96176.34
2017-08-30T08:44:45.919Z,96178.75
2017-08-30T08:47:11.703Z,96176.48
2017-08-30T08:49:37.469Z,96172.67
2017-08-30T08:52:03.267Z,96179.14
2017-08-30T08:54:30.037Z,96173.63
2017-08-30T08:56:55.800Z,96173.63
2017-08-30T08:59:21.559Z,96178.53
2017-08-30T09:01:47.339Z,96175.93
2017-08-30T09:04:13.124Z,96170.72
2017-08-30T09:06:38.891Z,96170.14
2017-08-30T09:09:04.757Z,96174.06
2017-08-30T09:11:30.524Z,96170.89
2017-08-30T09:13:56.291Z,96170.31
2017-08-30T09:16:22.083Z,96175.63
2017-08-30T09:18:47.908Z,96184.42
2017-08-30T09:21:13.680Z,96175.51
2017-08-30T09:23:39.436Z,96177.52
2017-08-30T09:26:05.207Z,96181.89
2017-08-30T09:28:30.955Z,96166.67
2017-08-30T09:30:56.735Z,96167.79
2017-08-30T09:33:22.475Z,96179.91
2017-08-30T09:35:48.232Z,96184.06
2017-08-30T09:38:14.024Z,96176.22
2017-08-30T09:40:39.967Z,96186.14
2017-08-30T09:43:05.725Z,96190.37
2017-08-30T09:45:31.510Z,96193.78
2017-08-30T09:47:57.280Z,96175.23
2017-08-30T09:50:23.047Z,96172.73
2017-08-30T09:52:48.828Z,96174.17
2017-08-30T09:55:14.611Z,96174.00
2017-08-30T09:57:40.356Z,96170.48
2017-08-30T10:00:06.118Z,96166.73
2017-08-30T10:02:31.891Z,96158.48
2017-08-30T10:04:57.676Z,96159.99
2017-08-30T10:07:23.476Z,96153.97
2017-08-30T10:09:49.278Z,96161.11
2017-08-30T10:12:15.035Z,96161.58
2017-08-30T10:14:40.891Z,96161.17
2017-08-30T10:17:06.676Z,96155.02
2017-08-30T10:19:32.443Z,96160.94
2017-08-30T10:21:58.224Z,96159.41
2017-08-30T10:24:23.987Z,96162.75
2017-08-30T10:26:49.733Z,96152.16
2017-08-30T10:29:15.500Z,96146.69
2017-08-30T10:31:41.281Z,96150.52
2017-08-30T10:34:07.019Z,96149.66
2017-08-30T10:36:32.787Z,96146.92
2017-08-30T10:38:58.532Z,96142.87
2017-08-30T10:41:24.336Z,96143.01
2017-08-30T10:43:50.099Z,96136.51
2017-08-30T10:46:15.849Z,96134.07
2017-08-30T10:48:41.624Z,96134.97
2017-08-30T10:51:07.385Z,96128.52
2017-08-30T10:53:33.270Z,96128.16
2017-08-30T10:55:59.023Z,96134.86
2017-08-30T10:58:24.789Z,96130.88
2017-08-30T11:00:50.584Z,96135.52
2017-08-30T11:03:16.356Z,96141.48
2017-08-30T11:05:42.157Z,96141.73
2017-08-30T11:08:07.957Z,96143.52
2017-08-30T11:10:33.737Z,96142.86
2017-08-30T11:12:59.532Z,96143.44
2017-08-30T11:15:25.330Z,96145.76
2017-08-30T11:17:51.092Z,96145.52
2017-08-30T11:20:16.880Z,96138.52
2017-08-30T11:22:42.628Z,96139.88
2017-08-30T11:25:08.436Z,96138.95
2017-08-30T11:27:34.219Z,96155.30
2017-08-30T11:30:00.002Z,96141.42
2017-08-30T11:32:25.843Z,96144.42
2017-08-30T11:34:51.599Z,96141.59
2017-08-30T11:37:17.362Z,96147.86
2017-08-30T11:39:43.135Z,96152.61
2017-08-30T11:42:08.904Z,96148.78
2017-08-30T11:44:34.786Z,96145.18
2017-08-30T11:47:00.548Z,96143.19
2017-08-30T11:49:26.299Z,96138.88
2017-08-30T11:51:52.083Z,96144.31
2017-08-30T11:54:17.886Z,96140.17
2017-08-30T11:56:43.670Z,96137.69
2017-08-30T11:59:09.479Z,96133.44
2017-08-30T12:01:35.248Z,96126.30
2017-08-30T12:04:01.034Z,96128.05
2017-08-30T12:06:26.820Z,96131.24
2017-08-30T12:08:52.580Z,96123.84
2017-08-30T12:11:18.355Z,96124.33
2017-08-30T12:13:44.115Z,96120.77
2017-08-30T12:16:09.902Z,96124.62
2017-08-30T12:18:35.677Z,96122.80
2017-08-30T12:21:01.449Z,96103.92
2017-08-30T12:23:27.238Z,96122.64
2017-08-30T12:25:53.000Z,96112.65
2017-08-30T12:28:18.741Z,96112.47
2017-08-30T12:30:46.559Z,96109.09
2017-08-30T12:33:12.360Z,96102.88
2017-08-30T12:35:38.116Z,96103.33
2017-08-30T12:38:10.048Z,96098.76
2017-08-30T12:40:35.808Z,96101.39
2017-08-30T12:43:01.582Z,96096.11
2017-08-30T12:45:27.360Z,96103.12
2017-08-30T12:47:53.172Z,96099.20
2017-08-30T12:50:18.950Z,96094.50
2017-08-30T12:52:44.750Z,96098.75
2017-08-30T12:55:10.502Z,96092.51
2017-08-30T12:57:36.296Z,96093.92
2017-08-30T13:00:02.178Z,96095.08
2017-08-30T13:02:27.941Z,96082.23
2017-08-30T13:04:53.696Z,96083.30
2017-08-30T13:07:19.470Z,96106.23
2017-08-30T13:09:45.245Z,96087.16
2017-08-30T13:12:11.047Z,96080.03
2017-08-30T13:14:36.807Z,96074.87
2017-08-30T13:17:02.563Z,96079.03
2017-08-30T13:19:28.415Z,96075.14
2017-08-30T13:21:54.195Z,96057.48
2017-08-30T13:24:20.043Z,96057.31
2017-08-30T13:26:45.869Z,96066.16
2017-08-30T13:29:11.740Z,96063.03
2017-08-30T13:31:37.524Z,96053.63
2017-08-30T13:34:03.323Z,96051.82
2017-08-30T13:36:29.071Z,96047.88
2017-08-30T13:38:54.865Z,96050.23
2017-08-30T13:41:21.426Z,96047.83
2017-08-30T13:43:47.317Z,96042.98
2017-08-30T13:46:13.162Z,96045.00
2017-08-30T13:48:38.959Z,96037.47
2017-08-30T13:51:05.914Z,96031.34
2017-08-30T13:53:31.727Z,96031.42
2017-08-30T13:55:57.524Z,96021.77
2017-08-30T13:58:23.271Z,96025.13
2017-08-30T14:00:49.115Z,96016.94
2017-08-30T14:03:15.547Z,96025.58
2017-08-30T14:05:41.330Z,96018.54
2017-08-30T14:08:07.120Z,96020.84
2017-08-30T14:10:32.883Z,96017.78
2017-08-30T14:12:58.710Z,96015.53
2017-08-30T14:15:24.468Z,96011.05
2017-08-30T14:17:50.251Z,96012.03
2017-08-30T14:20:16.115Z,95998.61
2017-08-30T14:22:41.882Z,96007.41
2017-08-30T14:25:07.709Z,95993.15
2017-08-30T14:27:34.092Z,95999.38
2017-08-30T14:30:00.636Z,95999.64
2017-08-30T14:32:27.171Z,96000.39
2017-08-30T14:34:53.712Z,95995.59
2017-08-30T14:37:20.054Z,95988.48
2017-08-30T14:39:46.388Z,95993.11
2017-08-30T14:42:12.200Z,95988.54
2017-08-30T14:44:37.962Z,95987.61
2017-08-30T14:47:03.803Z,95995.34
2017-08-30T14:49:29.564Z,95987.16
2017-08-30T14:51:55.351Z,95992.56
2017-08-30T14:54:21.260Z,95981.91
2017-08-30T14:56:47.789Z,95991.89
2017-08-30T14:59:14.324Z,95978.25
2017-08-30T15:01:40.660Z,95980.51
2017-08-30T15:04:06.996Z,95977.45
2017-08-30T15:06:33.435Z,95979.67
2017-08-30T15:08:59.768Z,95969.23
2017-08-30T15:11:26.116Z,95965.84
2017-08-30T15:13:52.451Z,95963.83
2017-08-30T15:16:18.898Z,95970.22
2017-08-30T15:18:45.232Z,95968.62
2017-08-30T15:21:11.369Z,95977.40
2017-08-30T15:23:37.791Z,95971.42
2017-08-30T15:26:04.236Z,95976.65
2017-08-30T15:28:30.568Z,95975.09
2017-08-30T15:30:57.014Z,95972.60
2017-08-30T15:33:23.348Z,95975.30
2017-08-30T15:35:49.698Z,95976.53
2017-08-30T15:38:16.120Z,95984.70
2017-08-30T15:40:42.560Z,95977.47
2017-08-30T15:43:09.007Z,95977.73
2017-08-30T15:45:35.442Z,95973.53
2017-08-30T15:48:02.031Z,95967.52
2017-08-30T15:50:28.520Z,95968.42
2017-08-30T15:52:55.063Z,95980.19
2017-08-30T15:55:21.702Z,95972.29
2017-08-30T15:57:48.047Z,95981.36
2017-08-30T16:00:14.380Z,95970.52
2017-08-30T16:02:40.715Z,95969.77
2017-08-30T16:05:07.155Z,95968.62
2017-08-30T16:07:36.611Z,95967.63
2017-08-30T16:10:02.530Z,95966.44
2017-08-30T16:12:28.292Z,95960.25
2017-08-30T16:14:54.162Z,95962.23
2017-08-30T16:17:19.959Z,95957.45
2017-08-30T16:19:45.757Z,95960.67
2017-08-30T16:22:11.523Z,95968.95
2017-08-30T16:24:37.364Z,95969.73
2017-08-30T16:27:03.103Z,95973.83
2017-08-30T16:29:28.852Z,95971.45
2017-08-30T16:31:54.656Z,95981.72
2017-08-30T16:34:20.474Z,95978.23
2017-08-30T16:36:46.215Z,95986.08
2017-08-30T16:39:12.008Z,95983.30
2017-08-30T16:41:37.814Z,95990.09
2017-08-30T16:44:03.571Z,95986.75
2017-08-30T16:46:29.323Z,95984.44
2017-08-30T16:48:55.152Z,95990.75
2017-08-30T16:51:20.913Z,95986.53
2017-08-30T16:53:46.707Z,95990.24
2017-08-30T16:56:12.581Z,95978.55
2017-08-30T16:58:38.376Z,95976.80
2017-08-30T17:01:04.197Z,95974.70
2017-08-30T17:03:30.019Z,95982.70
2017-08-30T17:05:55.811Z,95982.66
2017-08-30T17:08:21.651Z,95992.86
2017-08-30T17:10:47.443Z,95997.95
2017-08-30T17:13:13.299Z,96005.69
2017-08-30T17:15:39.075Z,96014.17
2017-08-30T17:18:04.906Z,96010.66
2017-08-30T17:20:30.658Z,96017.03
2017-08-30T17:22:56.464Z,96018.88
2017-08-30T17:25:22.281Z,96008.94
2017-08-30T17:27:48.118Z,96009.78
2017-08-30T17:30:17.012Z,96021.45
2017-08-30T17:32:42.849Z,96026.95
2017-08-30T17:35:08.724Z,96029.39
2017-08-30T17:37:34.524Z,96025.10
2017-08-30T17:40:00.300Z,96033.24
2017-08-30T17:42:26.064Z,96029.80
2017-08-30T17:44:51.871Z,96031.50
2017-08-30T17:47:17.635Z,96019.50
2017-08-30T17:49:43.499Z,96020.61
2017-08-30T17:52:09.255Z,96014.23
2017-08-30T17:54:35.003Z,96007.08
2017-08-30T17:57:00.796Z,96008.13
2017-08-30T17:59:26.940Z,96010.51
2017-08-30T18:01:52.804Z,96008.92
2017-08-30T18:04:18.566Z,96006.14
2017-08-30T18:06:44.323Z,96003.57
2017-08-30T18:09:10.135Z,96016.50
2017-08-30T18:11:35.907Z,96019.82
2017-08-30T18:14:01.683Z,96023.08
2017-08-30T18:16:27.580Z,96026.90
2017-08-30T18:18:53.359Z,96029.04
2017-08-30T18:21:19.162Z,96022.08
2017-08-30T18:23:45.054Z,96024.84
2017-08-30T18:26:10.828Z,96036.34
2017-08-30T18:28:36.701Z,96040.66
2017-08-30T18:31:02.452Z,96036.34
2017-08-30T18:33:28.234Z,96022.55
2017-08-30T18:35:54.016Z,96013.41
2017-08-30T18:38:19.828Z,96005.77
2017-08-30T18:40:45.639Z,95993.45
2017-08-30T18:43:11.398Z,96005.57
2017-08-30T18:45:37.156Z,95997.77
2017-08-30T18:48:02.968Z,96011.05
2017-08-30T18:50:28.783Z,96013.63
2017-08-30T18:52:54.657Z,96027.47
2017-08-30T18:55:20.493Z,96040.09
2017-08-30T18:57:46.265Z,96045.13
2017-08-30T19:00:16.032Z,96063.38
2017-08-30T19:02:41.799Z,96069.44
2017-08-30T19:05:07.619Z,96070.02
2017-08-30T19:07:33.398Z,96074.27
2017-08-30T19:09:59.312Z,96072.20
2017-08-30T19:12:25.081Z,96073.54
2017-08-30T19:14:50.961Z,96086.26
2017-08-30T19:17:16.714Z,96097.36
2017-08-30T19:19:42.506Z,96102.86
2017-08-30T19:22:08.334Z,96078.26
2017-08-30T19:24:34.212Z,96086.73
2017-08-30T19:27:19.081Z,96105.34
2017-08-30T19:29:49.053Z,96106.53
2017-08-30T19:32:14.809Z,96127.27
2017-08-30T19:34:40.678Z,96139.86
2017-08-30T19:37:06.437Z,96129.22
2017-08-30T19:39:32.305Z,96115.60
2017-08-30T19:41:58.062Z,96104.28
2017-08-30T19:44:23.864Z,96082.19
2017-08-30T19:46:53.822Z,96069.48
2017-08-30T19:49:19.590Z,96053.58
2017-08-30T19:51:49.260Z,96051.09
2017-08-30T19:54:15.044Z,96055.22
2017-08-30T19:56:40.832Z,96053.27
2017-08-30T19:59:06.611Z,96055.77
2017-08-30T20:01:32.408Z,96055.35
2017-08-30T20:03:58.162Z,96054.42
2017-08-30T20:06:23.939Z,96075.30
2017-08-30T20:08:49.703Z,96076.03
2017-08-30T20:11:15.680Z,96080.31
2017-08-30T20:13:41.462Z,96084.30
2017-08-30T20:16:07.240Z,96115.53
2017-08-30T20:18:33.017Z,96133.92
2017-08-30T20:20:58.789Z,96143.47
2017-08-30T20:23:24.596Z,96146.03
2017-08-30T20:25:50.361Z,96152.34
2017-08-30T20:28:16.125Z,96163.25
2017-08-30T20:30:41.876Z,96165.58
2017-08-30T20:33:07.981Z,96179.43
2017-08-30T20:35:33.743Z,96205.00
2017-08-30T20:37:59.533Z,96247.09
2017-08-30T20:40:25.415Z,96272.86
2017-08-30T20:42:51.207Z,96280.60
2017-08-30T20:45:17.044Z,96295.20
2017-08-30T20:47:42.841Z,96315.69
2017-08-30T20:50:08.593Z,96294.73
2017-08-30T20:52:34.355Z,96272.78
2017-08-30T20:55:01.076Z,96268.49
2017-08-30T20:57:27.003Z,96268.34
2017-08-30T20:59:52.760Z,96242.92
2017-08-30T21:02:18.534Z,96224.58
2017-08-30T21:04:44.346Z,96205.56
2017-08-30T21:07:10.119Z,96191.44
2017-08-30T21:09:35.935Z,96191.66
2017-08-30T21:12:01.739Z,96187.77
2017-08-30T21:14:28.095Z,96194.89
2017-08-30T21:16:53.856Z,96183.82
2017-08-30T21:19:19.683Z,96173.62
2017-08-30T21:21:45.476Z,96186.75
2017-08-30T21:24:11.286Z,96184.63
2017-08-30T21:26:37.080Z,96185.85
2017-08-30T21:29:02.889Z,96200.51
2017-08-30T21:31:28.818Z,96194.80
2017-08-30T21:33:54.556Z,96193.88
2017-08-30T21:36:20.328Z,96183.64
2017-08-30T21:38:46.137Z,96186.77
2017-08-30T21:41:11.892Z,96192.66
2017-08-30T21:43:37.648Z,96183.61
2017-08-30T21:46:03.452Z,96193.89
2017-08-30T21:48:29.191Z,96211.19
2017-08-30T21:50:54.948Z,96212.98
2017-08-30T21:53:20.812Z,96213.77
2017-08-30T21:55:46.598Z,96226.09
2017-08-30T21:58:12.356Z,96229.14
2017-08-30T22:00:38.200Z,96233.81
2017-08-30T22:03:03.949Z,96251.92
2017-08-30T22:05:29.768Z,96249.70
2017-08-30T22:07:55.526Z,96230.50
2017-08-30T22:10:21.284Z,96235.31
2017-08-30T22:12:47.044Z,96220.58
2017-08-30T22:15:13.416Z,96215.73
2017-08-30T22:17:39.205Z,96221.92
2017-08-30T22:20:05.004Z,96214.30
2017-08-30T22:22:30.756Z,96204.98
2017-08-30T22:24:56.526Z,96205.88
2017-08-30T22:27:22.318Z,96200.27
2017-08-30T22:29:48.148Z,96200.34
2017-08-30T22:32:13.890Z,96184.88
2017-08-30T22:34:39.676Z,96196.62
2017-08-30T22:37:05.422Z,96206.52
2017-08-30T22:39:31.280Z,96202.23
2017-08-30T22:41:57.043Z,96213.95
2017-08-30T22:44:22.943Z,96221.48
2017-08-30T22:46:48.703Z,96212.13
2017-08-30T22:49:14.472Z,96215.17
2017-08-30T22:51:40.288Z,96228.56
2017-08-30T22:54:06.038Z,96223.69
2017-08-30T22:56:31.835Z,96218.39
2017-08-30T22:58:57.600Z,96221.53
2017-08-30T23:01:23.360Z,96211.88
2017-08-30T23:03:49.141Z,96218.82
2017-08-30T23:06:14.896Z,96218.92
2017-08-30T23:08:40.708Z,96209.52
2017-08-30T23:11:06.471Z,96209.02
2017-08-30T23:13:32.229Z,96207.45
2017-08-30T23:15:58.030Z,96218.69
2017-08-30T23:18:23.794Z,96219.61
2017-08-30T23:20:49.571Z,96233.73
2017-08-30T23:23:15.368Z,96225.22
2017-08-30T23:25:41.139Z,96230.36
2017-08-30T23:28:06.928Z,96222.83
2017-08-30T23:30:32.692Z,96225.22
2017-08-30T23:32:58.450Z,96224.98
2017-08-30T23:35:24.243Z,96222.66
2017-08-30T23:37:50.005Z,96217.20
2017-08-30T23:40:15.783Z,96217.95
2017-08-30T23:42:41.557Z,96216.98
2017-08-30T23:45:07.400Z,96216.95
2017-08-30T23:47:33.344Z,96219.70
2017-08-30T23:49:59.101Z,96221.33
2017-08-30T23:52:24.871Z,96224.30
2017-08-30T23:54:50.681Z,96220.27
2017-08-30T23:57:16.472Z,96225.88
2017-08-30T23:59:43.014Z,96218.36
